createdAt,value
2023-01-20T00:01:46.631Z,33.97
2023-01-20T00:04:19.157Z,38.75
2023-01-20T00:06:48.012Z,30.67
2023-01-20T00:09:18.696Z,34.78
2023-01-20T00:11:47.701Z,31.48
2023-01-20T00:14:16.244Z,32.20
2023-01-20T00:16:44.734Z,37.80
2023-01-20T00:19:16.295Z,36.53
2023-01-20T00:21:44.996Z,29.10
2023-01-20T00:24:13.490Z,37.10
2023-01-20T00:26:42.153Z,30.98
2023-01-20T00:29:11.153Z,44.23
2023-01-20T00:31:39.688Z,38.03
2023-01-20T00:34:08.244Z,43.63
2023-01-20T00:36:38.292Z,37.30
2023-01-20T00:39:06.809Z,42.53
2023-01-20T00:41:35.278Z,44.13
2023-01-20T00:44:03.930Z,44.92
2023-01-20T00:46:32.402Z,45.63
2023-01-20T00:49:01.036Z,46.77
2023-01-20T00:51:29.522Z,50.47
2023-01-20T00:53:59.709Z,47.83
2023-01-20T00:56:28.354Z,57.03
2023-01-20T00:58:56.804Z,46.38
2023-01-20T01:01:25.615Z,54.13
2023-01-20T01:03:55.413Z,51.83
2023-01-20T01:06:24.110Z,59.45
2023-01-20T01:08:53.118Z,46.63
2023-01-20T01:11:23.904Z,56.50
2023-01-20T01:13:52.245Z,45.28
2023-01-20T01:16:20.748Z,44.00
2023-01-20T01:18:49.485Z,48.10
2023-01-20T01:21:18.777Z,53.33
2023-01-20T01:23:47.650Z,47.60
2023-01-20T01:26:16.226Z,54.67
2023-01-20T01:28:48.930Z,59.15
2023-01-20T01:31:22.810Z,52.92
2023-01-20T01:33:51.311Z,50.85
2023-01-20T01:36:20.118Z,54.50
2023-01-20T01:38:57.954Z,60.65
2023-01-20T01:41:27.987Z,49.92
2023-01-20T01:44:09.653Z,48.58
2023-01-20T01:46:39.085Z,52.35
2023-01-20T01:49:13.978Z,51.58
2023-01-20T01:51:47.094Z,46.85
2023-01-20T01:54:20.504Z,53.10
2023-01-20T01:56:51.051Z,48.35
2023-01-20T01:59:22.237Z,41.80
2023-01-20T02:01:53.721Z,49.22
2023-01-20T02:04:25.243Z,51.10
2023-01-20T02:06:57.754Z,53.83
2023-01-20T02:09:27.958Z,39.07
2023-01-20T02:12:00.291Z,44.13
2023-01-20T02:14:35.525Z,39.15
2023-01-20T02:17:18.066Z,51.78
2023-01-20T02:20:55.110Z,50.50
2023-01-20T02:23:49.740Z,57.45
2023-01-20T02:26:44.172Z,47.65
2023-01-20T02:29:57.845Z,50.85
2023-01-20T02:32:41.537Z,44.60
2023-01-20T02:35:15.164Z,49.85
2023-01-20T02:37:52.873Z,66.13
2023-01-20T02:40:31.945Z,62.85
2023-01-20T02:43:10.075Z,46.88
2023-01-20T02:45:47.215Z,51.83
2023-01-20T02:48:25.772Z,50.35
2023-01-20T02:51:04.049Z,57.53
2023-01-20T02:53:40.823Z,51.58
2023-01-20T02:56:11.131Z,56.25
2023-01-20T02:58:48.619Z,54.20
2023-01-20T03:01:25.192Z,56.13
2023-01-20T03:03:59.458Z,53.28
2023-01-20T03:06:33.416Z,56.72
2023-01-20T03:09:08.511Z,54.78
2023-01-20T03:11:41.972Z,55.65
2023-01-20T03:14:15.480Z,67.80
2023-01-20T03:16:48.406Z,59.97
2023-01-20T03:19:20.614Z,53.63
2023-01-20T03:21:49.720Z,51.25
2023-01-20T03:24:18.216Z,56.85
2023-01-20T03:26:47.161Z,51.20
2023-01-20T03:29:18.345Z,58.10
2023-01-20T03:31:52.101Z,48.90
2023-01-20T03:34:24.280Z,54.08
2023-01-20T03:36:54.864Z,61.30
2023-01-20T03:39:24.894Z,59.75
2023-01-20T03:42:07.228Z,53.40
2023-01-20T03:44:54.046Z,65.68
2023-01-20T03:47:42.223Z,59.75
2023-01-20T03:50:25.268Z,59.30
2023-01-20T03:53:01.353Z,57.47
2023-01-20T03:55:37.211Z,67.63
2023-01-20T03:58:10.900Z,70.97
2023-01-20T04:00:44.503Z,70.18
2023-01-20T04:03:19.934Z,92.53
2023-01-20T04:05:51.039Z,96.63
2023-01-20T04:08:23.501Z,76.63
2023-01-20T04:10:53.358Z,70.53
2023-01-20T04:13:21.966Z,79.05
2023-01-20T04:15:51.630Z,95.30
2023-01-20T04:18:24.079Z,68.30
2023-01-20T04:21:00.628Z,64.80
2023-01-20T04:23:37.430Z,87.38
2023-01-20T04:26:06.388Z,84.47
2023-01-20T04:28:35.481Z,74.18
2023-01-20T04:31:03.955Z,63.40
2023-01-20T04:33:32.440Z,72.13
2023-01-20T04:36:02.289Z,80.37
2023-01-20T04:38:30.862Z,79.80
2023-01-20T04:40:59.390Z,72.37
2023-01-20T04:43:27.820Z,74.55
2023-01-20T04:45:56.299Z,84.30
2023-01-20T04:48:24.799Z,75.90
2023-01-20T04:50:53.112Z,61.30
2023-01-20T04:53:23.034Z,86.03
2023-01-20T04:55:51.420Z,77.07
2023-01-20T04:58:19.881Z,74.77
2023-01-20T05:00:48.203Z,67.45
2023-01-20T05:03:16.871Z,76.82
2023-01-20T05:05:45.254Z,80.28
2023-01-20T05:08:13.815Z,77.55
2023-01-20T05:10:43.583Z,78.43
2023-01-20T05:13:12.064Z,92.95
2023-01-20T05:15:41.250Z,78.03
2023-01-20T05:18:09.811Z,82.38
2023-01-20T05:20:38.266Z,79.78
2023-01-20T05:23:07.090Z,79.27
2023-01-20T05:25:35.419Z,66.45
2023-01-20T05:28:05.731Z,75.50
2023-01-20T05:30:34.555Z,68.97
2023-01-20T05:33:03.017Z,61.55
2023-01-20T05:35:31.475Z,81.30
2023-01-20T05:37:59.922Z,55.10
2023-01-20T05:40:28.411Z,74.35
2023-01-20T05:43:00.501Z,66.60
2023-01-20T05:45:30.356Z,59.45
2023-01-20T05:48:00.551Z,60.60
2023-01-20T05:50:30.468Z,66.43
2023-01-20T05:52:58.851Z,69.30
2023-01-20T05:55:27.500Z,53.35
2023-01-20T05:57:55.935Z,66.00
2023-01-20T06:00:25.260Z,51.13
2023-01-20T06:02:55.307Z,55.63
2023-01-20T06:05:24.136Z,63.80
2023-01-20T06:07:52.641Z,65.28
2023-01-20T06:10:21.098Z,56.35
2023-01-20T06:12:54.058Z,68.55
2023-01-20T06:15:24.100Z,51.07
2023-01-20T06:17:56.197Z,60.65
2023-01-20T06:20:24.631Z,70.43
2023-01-20T06:22:56.692Z,66.35
2023-01-20T06:25:25.202Z,52.22
2023-01-20T06:27:53.577Z,56.83
2023-01-20T06:30:22.169Z,65.63
2023-01-20T06:32:50.695Z,50.23
2023-01-20T06:35:20.468Z,56.40
2023-01-20T06:37:48.968Z,55.13
2023-01-20T06:40:18.570Z,55.05
2023-01-20T06:42:47.035Z,50.10
2023-01-20T06:45:17.025Z,51.53
2023-01-20T06:48:00.512Z,50.35
2023-01-20T06:50:30.499Z,60.17
2023-01-20T06:52:59.023Z,40.07
2023-01-20T06:55:28.046Z,58.03
2023-01-20T06:57:56.663Z,47.00
2023-01-20T07:00:26.107Z,49.25
2023-01-20T07:02:54.457Z,41.70
2023-01-20T07:05:22.837Z,51.13
2023-01-20T07:07:52.978Z,45.10
2023-01-20T07:10:21.509Z,53.03
2023-01-20T07:12:49.900Z,45.33
2023-01-20T07:15:18.310Z,56.77
2023-01-20T07:17:46.920Z,47.03
2023-01-20T07:20:15.884Z,53.70
2023-01-20T07:22:44.577Z,55.15
2023-01-20T07:25:14.757Z,51.85
2023-01-20T07:27:44.089Z,51.63
2023-01-20T07:30:13.134Z,49.20
2023-01-20T07:32:41.620Z,55.25
2023-01-20T07:35:10.858Z,44.90
2023-01-20T07:37:39.344Z,49.05
2023-01-20T07:40:10.255Z,36.17
2023-01-20T07:42:40.360Z,47.20
2023-01-20T07:45:10.239Z,44.33
2023-01-20T07:47:38.659Z,35.00
2023-01-20T07:50:07.885Z,39.50
2023-01-20T07:52:36.305Z,38.15
2023-01-20T07:55:05.375Z,43.13
2023-01-20T07:57:33.814Z,36.33
2023-01-20T08:00:04.641Z,49.00
2023-01-20T08:02:39.021Z,43.83
2023-01-20T08:05:09.009Z,37.13
2023-01-20T08:07:37.411Z,32.30
2023-01-20T08:10:07.110Z,33.30
2023-01-20T08:12:35.420Z,34.17
2023-01-20T08:15:06.482Z,35.70
2023-01-20T08:17:34.912Z,37.38
2023-01-20T08:20:03.422Z,32.20
2023-01-20T08:22:31.734Z,38.37
2023-01-20T08:25:00.033Z,48.17
2023-01-20T08:27:28.559Z,38.17
2023-01-20T08:29:56.963Z,35.07
2023-01-20T08:32:26.663Z,39.35
2023-01-20T08:34:55.062Z,38.90
2023-01-20T08:37:23.663Z,37.63
2023-01-20T08:39:51.989Z,41.28
2023-01-20T08:42:20.405Z,38.05
2023-01-20T08:44:53.344Z,39.38
2023-01-20T08:47:21.742Z,37.88
2023-01-20T08:49:53.584Z,43.47
2023-01-20T08:52:22.077Z,43.30
2023-01-20T08:54:53.952Z,38.00
2023-01-20T08:57:22.262Z,39.40
2023-01-20T08:59:50.795Z,39.10
2023-01-20T09:02:19.117Z,38.47
2023-01-20T09:04:49.666Z,37.05
2023-01-20T09:07:20.750Z,44.43
2023-01-20T09:09:49.290Z,33.93
2023-01-20T09:12:17.599Z,32.88
2023-01-20T09:14:46.753Z,42.30
2023-01-20T09:17:15.144Z,38.03
2023-01-20T09:19:43.596Z,35.87
2023-01-20T09:22:11.945Z,37.08
2023-01-20T09:24:41.959Z,33.90
2023-01-20T09:27:10.453Z,36.42
2023-01-20T09:29:38.846Z,30.27
2023-01-20T09:32:07.393Z,35.20
2023-01-20T09:34:36.302Z,42.60
2023-01-20T09:37:18.831Z,34.80
2023-01-20T09:40:06.845Z,38.53
2023-01-20T09:43:08.853Z,39.77
2023-01-20T09:45:45.585Z,29.67
2023-01-20T09:48:39.723Z,33.67
2023-01-20T09:51:32.737Z,34.70
2023-01-20T09:54:09.990Z,36.50
2023-01-20T09:56:48.004Z,32.03
2023-01-20T09:59:22.073Z,36.92
2023-01-20T10:01:55.098Z,38.47
2023-01-20T10:04:32.914Z,34.33
2023-01-20T10:07:09.110Z,30.73
2023-01-20T10:09:46.045Z,26.30
2023-01-20T10:12:23.513Z,39.70
2023-01-20T10:14:59.569Z,34.20
2023-01-20T10:17:35.033Z,34.70
2023-01-20T10:20:08.924Z,47.70
2023-01-20T10:22:43.927Z,33.30
2023-01-20T10:25:22.051Z,36.23
2023-01-20T10:27:57.222Z,26.47
2023-01-20T10:30:31.824Z,32.47
2023-01-20T10:33:07.092Z,43.73
2023-01-20T10:35:40.467Z,35.05
2023-01-20T10:38:21.331Z,41.40
2023-01-20T10:40:56.720Z,42.90
2023-01-20T10:43:27.594Z,29.93
2023-01-20T10:46:25.064Z,37.77
2023-01-20T10:49:22.724Z,34.20
2023-01-20T10:52:04.455Z,35.90
2023-01-20T10:54:43.257Z,38.30
2023-01-20T10:57:16.319Z,35.63
2023-01-20T10:59:50.447Z,34.77
2023-01-20T11:02:23.983Z,31.23
2023-01-20T11:04:58.805Z,42.37
2023-01-20T11:07:28.807Z,34.40
2023-01-20T11:09:57.453Z,36.33
2023-01-20T11:12:31.413Z,31.90
2023-01-20T11:15:02.544Z,34.27
2023-01-20T11:17:31.251Z,40.77
2023-01-20T11:20:07.518Z,44.40
2023-01-20T11:22:38.795Z,44.23
2023-01-20T11:25:23.691Z,53.13
2023-01-20T11:27:52.952Z,49.37
2023-01-20T11:30:30.893Z,49.37
2023-01-20T11:33:17.328Z,48.23
2023-01-20T11:36:00.878Z,47.03
2023-01-20T11:38:31.736Z,42.37
2023-01-20T11:41:00.672Z,42.03
2023-01-20T11:43:36.230Z,39.50
2023-01-20T11:46:28.740Z,38.07
2023-01-20T11:49:20.361Z,42.67
2023-01-20T11:51:55.657Z,47.17
2023-01-20T11:54:26.661Z,36.63
2023-01-20T11:57:00.027Z,44.00
2023-01-20T11:59:31.381Z,38.33
2023-01-20T12:02:21.249Z,37.50
2023-01-20T12:05:03.850Z,42.57
2023-01-20T12:07:38.587Z,39.97
2023-01-20T12:10:18.736Z,40.33
2023-01-20T12:12:52.795Z,36.53
2023-01-20T12:15:24.789Z,38.63
2023-01-20T12:17:59.987Z,49.43
2023-01-20T12:20:45.659Z,36.33
2023-01-20T12:23:24.917Z,36.17
2023-01-20T12:25:57.942Z,38.67
2023-01-20T12:28:35.274Z,40.70
2023-01-20T12:31:05.888Z,38.00
2023-01-20T12:33:40.152Z,40.97
2023-01-20T12:36:39.568Z,35.40
2023-01-20T12:39:29.487Z,43.20
2023-01-20T12:42:34.451Z,34.77
2023-01-20T12:45:13.846Z,38.77
2023-01-20T12:47:58.472Z,33.43
2023-01-20T12:50:46.389Z,38.60
2023-01-20T12:53:38.991Z,40.67
2023-01-20T12:56:19.858Z,37.33
2023-01-20T12:58:58.501Z,36.50
2023-01-20T13:01:55.613Z,42.57
2023-01-20T13:05:26.003Z,34.17
2023-01-20T13:08:08.524Z,36.70
2023-01-20T13:11:05.353Z,33.83
2023-01-20T13:13:56.016Z,30.67
2023-01-20T13:16:37.658Z,31.60
2023-01-20T13:19:14.729Z,29.00
2023-01-20T13:21:43.287Z,27.60
2023-01-20T13:24:24.347Z,27.97
2023-01-20T13:26:53.450Z,41.20
2023-01-20T13:29:23.570Z,29.40
2023-01-20T13:31:54.015Z,23.53
2023-01-20T13:34:36.463Z,25.87
2023-01-20T13:37:39.507Z,24.67
2023-01-20T13:40:58.740Z,23.20
2023-01-20T13:43:46.979Z,22.83
2023-01-20T13:46:50.048Z,11.67
2023-01-20T13:49:50.334Z,17.10
2023-01-20T13:53:25.702Z,18.57
2023-01-20T13:56:26.712Z,14.87
2023-01-20T13:58:55.460Z,14.50
2023-01-20T14:01:23.913Z,20.40
2023-01-20T14:04:04.841Z,22.60
2023-01-20T14:06:35.891Z,23.73
2023-01-20T14:09:19.892Z,21.47
2023-01-20T14:11:51.914Z,19.47
2023-01-20T14:14:22.961Z,23.40
2023-01-20T14:16:52.252Z,20.00
2023-01-20T14:19:25.375Z,20.87
2023-01-20T14:21:56.500Z,37.53
2023-01-20T14:24:31.927Z,43.67
2023-01-20T14:27:12.890Z,22.77
2023-01-20T14:29:41.408Z,20.27
2023-01-20T14:32:22.567Z,17.83
2023-01-20T14:34:51.667Z,25.73
2023-01-20T14:37:27.781Z,16.37
2023-01-20T14:40:01.063Z,17.27
2023-01-20T14:42:31.141Z,22.27
2023-01-20T14:45:00.031Z,24.80
2023-01-20T14:47:31.412Z,20.83
2023-01-20T14:49:59.994Z,20.67
2023-01-20T14:52:32.418Z,23.33
2023-01-20T14:55:02.259Z,19.20
2023-01-20T14:57:34.004Z,19.23
2023-01-20T15:00:20.705Z,17.90
2023-01-20T15:03:05.357Z,17.47
2023-01-20T15:05:40.486Z,15.43
2023-01-20T15:08:26.326Z,15.00
2023-01-20T15:11:23.923Z,17.60
2023-01-20T15:14:13.648Z,16.07
2023-01-20T15:16:51.094Z,18.67
2023-01-20T15:19:46.689Z,21.23
2023-01-20T15:22:22.457Z,23.13
2023-01-20T15:24:52.072Z,21.87
2023-01-20T15:27:34.371Z,23.40
2023-01-20T15:30:14.286Z,23.87
2023-01-20T15:32:43.054Z,20.97
2023-01-20T15:35:15.242Z,23.10
2023-01-20T15:37:45.331Z,23.70
2023-01-20T15:40:20.236Z,20.10
2023-01-20T15:42:53.661Z,18.37
2023-01-20T15:45:22.301Z,19.37
2023-01-20T15:47:50.674Z,24.00
2023-01-20T15:50:22.642Z,21.33
2023-01-20T15:52:51.633Z,21.10
2023-01-20T15:55:21.023Z,21.50
2023-01-20T15:57:53.128Z,17.90
2023-01-20T16:00:24.772Z,21.67
2023-01-20T16:02:53.212Z,19.80
2023-01-20T16:05:22.125Z,21.97
2023-01-20T16:07:50.633Z,21.13
2023-01-20T16:10:21.029Z,18.90
2023-01-20T16:12:50.833Z,19.13
2023-01-20T16:15:20.117Z,18.83
2023-01-20T16:17:50.917Z,18.63
2023-01-20T16:20:25.647Z,17.73
2023-01-20T16:22:54.277Z,16.27
2023-01-20T16:25:23.210Z,15.90
2023-01-20T16:27:52.960Z,19.20
2023-01-20T16:30:24.691Z,16.03
2023-01-20T16:32:53.244Z,18.33
2023-01-20T16:35:23.606Z,19.33
2023-01-20T16:37:52.412Z,19.80
2023-01-20T16:40:22.715Z,22.70
2023-01-20T16:42:56.962Z,19.50
2023-01-20T16:45:29.417Z,21.53
2023-01-20T16:47:58.105Z,20.17
2023-01-20T16:50:28.549Z,25.13
2023-01-20T16:52:57.277Z,25.47
2023-01-20T16:55:25.727Z,22.43
2023-01-20T16:57:55.415Z,23.80
2023-01-20T17:00:24.432Z,27.30
2023-01-20T17:02:53.291Z,26.60
2023-01-20T17:05:25.639Z,24.47
2023-01-20T17:07:56.885Z,24.83
2023-01-20T17:10:27.024Z,23.00
2023-01-20T17:12:58.299Z,28.10
2023-01-20T17:15:27.553Z,26.80
2023-01-20T17:17:59.879Z,25.70
2023-01-20T17:20:31.018Z,25.60
2023-01-20T17:22:59.538Z,33.93
2023-01-20T17:25:28.407Z,30.93
2023-01-20T17:27:58.227Z,26.90
2023-01-20T17:30:26.966Z,21.00
2023-01-20T17:32:55.628Z,23.73
2023-01-20T17:35:24.022Z,22.13
2023-01-20T17:37:52.600Z,23.27
2023-01-20T17:40:21.110Z,22.97
2023-01-20T17:42:53.023Z,21.07
2023-01-20T17:45:22.759Z,21.57
2023-01-20T17:47:52.231Z,22.37
2023-01-20T17:50:20.881Z,19.93
2023-01-20T17:52:49.723Z,22.77
2023-01-20T17:55:18.608Z,21.30
2023-01-20T17:57:47.022Z,23.57
2023-01-20T18:00:16.443Z,23.60
2023-01-20T18:02:46.314Z,23.83
2023-01-20T18:05:15.301Z,26.20
2023-01-20T18:07:43.629Z,23.90
2023-01-20T18:10:13.102Z,25.37
2023-01-20T18:12:41.730Z,22.17
2023-01-20T18:15:10.801Z,24.30
2023-01-20T18:17:40.716Z,23.37
2023-01-20T18:20:12.749Z,23.43
2023-01-20T18:22:41.284Z,27.97
2023-01-20T18:25:10.827Z,27.23
2023-01-20T18:27:39.358Z,25.23
2023-01-20T18:30:09.668Z,22.50
2023-01-20T18:32:38.016Z,23.40
2023-01-20T18:35:07.380Z,22.43
2023-01-20T18:37:40.423Z,23.10
2023-01-20T18:40:11.777Z,18.43
2023-01-20T18:42:40.397Z,27.53
2023-01-20T18:45:10.160Z,26.87
2023-01-20T18:47:38.534Z,29.27
2023-01-20T18:50:07.927Z,24.70
2023-01-20T18:52:38.986Z,27.50
2023-01-20T18:55:09.533Z,29.70
2023-01-20T18:57:37.866Z,26.73
2023-01-20T19:00:07.768Z,27.43
2023-01-20T19:02:36.198Z,28.90
2023-01-20T19:05:05.035Z,27.43
2023-01-20T19:07:33.327Z,34.97
2023-01-20T19:10:03.072Z,27.27
2023-01-20T19:12:31.693Z,30.03
2023-01-20T19:15:00.162Z,25.43
2023-01-20T19:17:30.701Z,29.87
2023-01-20T19:19:59.051Z,35.83
2023-01-20T19:22:27.513Z,22.23
2023-01-20T19:24:55.898Z,30.87
2023-01-20T19:27:26.454Z,32.53
2023-01-20T19:29:55.012Z,31.33
2023-01-20T19:32:23.394Z,28.07
2023-01-20T19:34:51.774Z,29.77
2023-01-20T19:37:20.146Z,33.87
2023-01-20T19:39:49.036Z,35.13
2023-01-20T19:42:17.523Z,31.37
2023-01-20T19:44:47.298Z,34.00
2023-01-20T19:47:15.843Z,27.03
2023-01-20T19:49:44.283Z,34.20
2023-01-20T19:52:12.696Z,35.53
2023-01-20T19:54:41.019Z,38.10
2023-01-20T19:57:09.751Z,35.07
2023-01-20T19:59:40.863Z,29.40
2023-01-20T20:02:11.501Z,36.27
2023-01-20T20:04:40.018Z,42.50
2023-01-20T20:07:09.058Z,33.88
2023-01-20T20:09:38.226Z,35.13
2023-01-20T20:12:07.778Z,44.27
2023-01-20T20:14:36.358Z,43.92
2023-01-20T20:17:05.152Z,39.37
2023-01-20T20:19:35.077Z,39.67
2023-01-20T20:22:03.513Z,38.50
2023-01-20T20:24:31.951Z,31.90
2023-01-20T20:27:00.378Z,40.53
2023-01-20T20:29:28.885Z,36.40
2023-01-20T20:31:57.395Z,46.97
2023-01-20T20:34:25.991Z,41.17
2023-01-20T20:36:55.809Z,36.10
2023-01-20T20:39:24.166Z,48.80
2023-01-20T20:41:52.509Z,42.70
2023-01-20T20:44:21.003Z,44.07
2023-01-20T20:46:49.687Z,39.17
2023-01-20T20:49:19.048Z,54.63
2023-01-20T20:51:47.786Z,44.40
2023-01-20T20:54:17.821Z,41.07
2023-01-20T20:56:46.752Z,41.33
2023-01-20T20:59:15.369Z,51.33
2023-01-20T21:01:43.852Z,49.05
2023-01-20T21:04:12.312Z,45.60
2023-01-20T21:06:40.668Z,46.00
2023-01-20T21:09:09.132Z,52.90
2023-01-20T21:11:39.693Z,48.70
2023-01-20T21:14:09.338Z,50.43
2023-01-20T21:16:38.093Z,44.47
2023-01-20T21:19:06.714Z,51.90
2023-01-20T21:21:35.192Z,43.17
2023-01-20T21:24:04.333Z,54.05
2023-01-20T21:26:32.787Z,51.60
2023-01-20T21:29:03.777Z,55.17
2023-01-20T21:31:34.673Z,50.57
2023-01-20T21:34:03.736Z,53.72
2023-01-20T21:36:34.505Z,48.85
2023-01-20T21:39:03.146Z,47.33
2023-01-20T21:41:31.605Z,49.05
2023-01-20T21:44:17.926Z,48.38
2023-01-20T21:46:49.408Z,54.47
2023-01-20T21:49:35.350Z,54.80
2023-01-20T21:52:21.463Z,59.03
2023-01-20T21:54:49.908Z,52.97
2023-01-20T21:57:18.487Z,46.97
2023-01-20T21:59:47.156Z,52.25
2023-01-20T22:02:17.212Z,50.10
2023-01-20T22:04:46.782Z,43.63
2023-01-20T22:07:16.778Z,46.35
2023-01-20T22:09:45.532Z,47.88
2023-01-20T22:12:14.878Z,56.30
2023-01-20T22:14:43.640Z,43.78
2023-01-20T22:17:13.455Z,46.85
2023-01-20T22:19:43.931Z,44.92
2023-01-20T22:22:15.012Z,44.70
2023-01-20T22:24:43.793Z,45.47
2023-01-20T22:27:12.263Z,50.88
2023-01-20T22:29:40.946Z,46.70
2023-01-20T22:32:09.341Z,58.92
2023-01-20T22:34:37.737Z,51.38
2023-01-20T22:37:07.497Z,56.40
2023-01-20T22:39:36.029Z,47.63
2023-01-20T22:42:04.484Z,45.85
2023-01-20T22:44:32.896Z,53.60
2023-01-20T22:47:01.783Z,46.22
2023-01-20T22:49:30.185Z,50.28
2023-01-20T22:51:58.654Z,49.45
2023-01-20T22:54:28.562Z,43.83
2023-01-20T22:56:57.008Z,51.75
2023-01-20T22:59:25.474Z,48.85
2023-01-20T23:01:53.856Z,55.10
2023-01-20T23:04:22.210Z,48.28
2023-01-20T23:06:50.591Z,51.58
2023-01-20T23:09:18.962Z,42.10
2023-01-20T23:11:49.583Z,45.25
2023-01-20T23:14:18.152Z,46.65
2023-01-20T23:16:46.594Z,54.47
2023-01-20T23:19:15.069Z,53.85
2023-01-20T23:21:43.457Z,53.92
2023-01-20T23:24:11.851Z,43.22
2023-01-20T23:26:40.352Z,46.50
2023-01-20T23:29:10.297Z,55.35
2023-01-20T23:31:38.759Z,42.20
2023-01-20T23:34:07.143Z,40.90
2023-01-20T23:36:35.518Z,55.03
2023-01-20T23:39:04.043Z,52.60
2023-01-20T23:41:32.509Z,60.70
2023-01-20T23:44:00.986Z,57.78
2023-01-20T23:46:30.791Z,45.40
2023-01-20T23:48:59.221Z,40.80
2023-01-20T23:51:27.569Z,50.53
2023-01-20T23:53:56.879Z,47.50
2023-01-20T23:56:26.484Z,44.60
2023-01-20T23:58:54.850Z,51.08
